Time;durP1;ratioP1;P1;durP2;ratioP2;P2;SDS_P1;SDS_P2;PMS_P1;PMS_P2;Temp;Humidity;BMP_temperature;BMP_pressure;BME280_temperature;BME280_humidity;BME280_pressure;Samples;Min_cycle;Max_cycle;Signal;HPM_P1;HPM_P2
2023/02/20 00:00:17;;;;;;;;;20.40;18.00;;;;;6.70;53.36;99332.00;7735331;22;96869;-66
2023/02/20 00:03:20;;;;;;;;;19.00;18.00;;;;;6.71;53.44;99320.28;7708061;22;96706;-67
2023/02/20 00:06:25;;;;;;;;;15.00;14.50;;;;;6.76;53.49;99325.91;7736527;22;96792;-66
2023/02/20 00:09:28;;;;;;;;;17.00;16.00;;;;;6.65;53.34;99304.94;7735928;22;96263;-66
2023/02/20 00:12:32;;;;;;;;;17.50;16.00;;;;;6.57;53.71;99313.09;7736273;22;96792;-66
2023/02/20 00:15:35;;;;;;;;;18.00;15.00;;;;;6.59;53.81;99311.06;7734674;22;97140;-66
2023/02/20 00:18:38;;;;;;;;;15.25;15.00;;;;;6.54;53.65;99290.19;7735153;22;96126;-67
2023/02/20 00:21:47;;;;;;;;;16.40;15.00;;;;;6.60;54.01;99304.69;7736198;22;96880;-66
2023/02/20 00:24:51;;;;;;;;;14.40;13.60;;;;;6.52;54.08;99306.44;7735268;22;96706;-66
2023/02/20 00:27:55;;;;;;;;;15.75;14.25;;;;;6.46;54.18;99311.69;7736390;22;96274;-65
2023/02/20 00:30:58;;;;;;;;;17.00;15.00;;;;;6.43;54.38;99312.06;7709052;22;96324;-65
2023/02/20 00:34:02;;;;;;;;;17.00;15.00;;;;;6.48;54.28;99302.47;7736224;22;96211;-66
2023/02/20 00:37:07;;;;;;;;;15.50;14.50;;;;;6.53;54.21;99315.31;7735702;22;96443;-66
2023/02/20 00:40:11;;;;;;;;;14.00;13.50;;;;;6.45;54.20;99312.72;7736699;22;96170;-66
2023/02/20 00:43:15;;;;;;;;;15.00;14.00;;;;;6.42;54.35;99321.94;7710683;22;96414;-66
2023/02/20 00:46:18;;;;;;;;;12.80;11.80;;;;;6.56;54.15;99314.91;7711167;22;96538;-66
2023/02/20 00:49:21;;;;;;;;;13.40;13.00;;;;;6.57;53.90;99307.72;7737580;22;96192;-66
2023/02/20 00:52:26;;;;;;;;;14.60;12.00;;;;;6.59;53.85;99303.03;7709182;22;96521;-66
2023/02/20 00:55:30;;;;;;;;;14.60;13.00;;;;;6.64;53.59;99308.66;7709777;22;96840;-66
2023/02/20 00:58:33;;;;;;;;;13.60;12.00;;;;;6.71;53.41;99293.47;7736781;22;96345;-66
2023/02/20 01:01:37;;;;;;;;;16.00;15.00;;;;;6.82;53.26;99288.47;7737586;22;96659;-66
2023/02/20 01:04:40;;;;;;;;;12.25;11.75;;;;;6.87;53.11;99288.75;7737427;22;96297;-68
2023/02/20 01:07:46;;;;;;;;;15.50;14.50;;;;;6.94;52.75;99288.81;7710540;22;96287;-66
2023/02/20 01:10:50;;;;;;;;;11.00;11.00;;;;;7.07;52.74;99294.34;7737656;22;96286;-66
2023/02/20 01:13:54;;;;;;;;;16.00;14.60;;;;;7.04;52.45;99285.84;7738235;22;96231;-66
2023/02/20 01:16:57;;;;;;;;;11.80;11.20;;;;;7.11;52.47;99284.06;7737348;22;96232;-66
2023/02/20 01:20:03;;;;;;;;;14.80;13.00;;;;;7.14;52.51;99294.38;7737681;22;96113;-66
2023/02/20 01:23:09;;;;;;;;;14.25;11.25;;;;;7.09;52.41;99303.00;7737524;22;96217;-67
2023/02/20 01:26:13;;;;;;;;;13.00;13.00;;;;;7.13;52.51;99303.47;7737889;22;96223;-67
2023/02/20 01:29:17;;;;;;;;;12.80;12.20;;;;;7.23;52.37;99306.69;7710485;22;97307;-67
2023/02/20 01:32:20;;;;;;;;;14.60;13.00;;;;;7.20;52.43;99299.00;7737891;22;96670;-67
2023/02/20 01:35:24;;;;;;;;;10.00;9.00;;;;;7.11;52.39;99306.34;7737406;22;96268;-67
2023/02/20 01:38:28;;;;;;;;;13.00;13.00;;;;;7.22;52.27;99297.81;7710158;22;96255;-66
2023/02/20 01:41:32;;;;;;;;;13.00;11.00;;;;;7.16;52.13;99298.56;7710252;22;96225;-66
2023/02/20 01:44:38;;;;;;;;;11.00;10.80;;;;;7.14;51.93;99302.44;7710471;22;96781;-66
2023/02/20 01:47:41;;;;;;;;;12.00;12.00;;;;;7.17;52.02;99297.53;7738041;22;96178;-66
2023/02/20 01:50:46;;;;;;;;;15.25;13.00;;;;;7.11;52.40;99281.38;7737567;22;96418;-66
2023/02/20 01:53:51;;;;;;;;;10.75;10.25;;;;;7.26;52.18;99291.03;7709472;22;96165;-66
2023/02/20 01:56:59;;;;;;;;;11.00;10.00;;;;;7.35;51.87;99287.19;7710027;22;97025;-66
2023/02/20 02:00:06;;;;;;;;;12.00;12.00;;;;;7.42;51.63;99294.50;7710398;22;96674;-67
2023/02/20 02:03:21;;;;;;;;;9.80;9.00;;;;;7.09;51.46;99221.75;7710885;22;96420;-67
2023/02/20 02:06:27;;;;;;;;;13.00;12.00;;;;;7.47;51.51;99270.59;7710821;22;96747;-67
2023/02/20 02:09:39;;;;;;;;;14.40;12.40;;;;;7.42;51.35;99265.81;7710498;22;96880;-66
2023/02/20 02:12:47;;;;;;;;;9.80;9.00;;;;;7.38;51.73;99259.97;7710562;22;96228;-66
2023/02/20 02:15:53;;;;;;;;;13.60;13.00;;;;;7.47;51.67;99260.72;7710476;22;96164;-66
2023/02/20 02:19:07;;;;;;;;;11.00;11.00;;;;;7.46;51.58;99255.53;7710274;22;96722;-66
2023/02/20 02:22:45;;;;;;;;;11.40;10.40;;;;;7.37;51.68;99247.63;7737764;22;96311;-66
2023/02/20 02:25:59;;;;;;;;;10.00;10.00;;;;;7.42;51.59;99246.22;7717253;22;96188;-66
2023/02/20 02:29:42;;;;;;;;;13.40;12.00;;;;;7.47;51.61;99249.97;7684248;22;96908;-67
2023/02/20 02:33:24;;;;;;;;;9.25;9.25;;;;;7.47;51.44;99251.81;7649120;22;97295;-66
2023/02/20 02:36:57;;;;;;;;;10.00;9.00;;;;;7.51;51.38;99253.94;7711961;22;96398;-67
2023/02/20 02:40:08;;;;;;;;;12.00;11.00;;;;;7.48;51.30;99261.53;7728384;22;96371;-66
2023/02/20 02:43:18;;;;;;;;;11.20;8.80;;;;;7.46;51.33;99256.34;7737546;22;96144;-66
2023/02/20 02:46:27;;;;;;;;;12.40;10.40;;;;;7.36;51.31;99245.13;7710357;22;96290;-67
2023/02/20 02:49:38;;;;;;;;;11.60;10.00;;;;;7.36;51.52;99239.75;7709396;22;96238;-66
2023/02/20 02:52:47;;;;;;;;;12.00;12.00;;;;;7.34;51.21;99226.53;7737045;22;96874;-66
2023/02/20 02:55:50;;;;;;;;;15.00;11.00;;;;;7.44;51.27;99230.72;7736820;22;96229;-67
2023/02/20 02:58:55;;;;;;;;;12.00;11.00;;;;;7.49;51.21;99245.22;7737273;22;96284;-66
2023/02/20 03:02:02;;;;;;;;;9.40;9.00;;;;;7.43;51.12;99247.88;7709782;22;96062;-64
2023/02/20 03:05:10;;;;;;;;;11.00;10.00;;;;;7.55;51.00;99244.47;7709429;22;96973;-66
2023/02/20 03:08:30;;;;;;;;;11.50;11.00;;;;;7.54;50.72;99248.16;7710444;22;96949;-66
2023/02/20 03:11:36;;;;;;;;;11.00;11.00;;;;;7.51;50.40;99239.69;7684085;22;97177;-66
2023/02/20 03:18:19;;;;;;;;;10.00;10.00;;;;;7.48;50.67;99214.06;7710264;22;96157;-66
2023/02/20 03:21:25;;;;;;;;;11.00;11.00;;;;;7.34;50.42;99180.94;7737140;22;96140;-67
2023/02/20 03:24:53;;;;;;;;;10.00;9.00;;;;;7.32;50.50;99176.81;7710012;22;96314;-67
2023/02/20 03:28:07;;;;;;;;;8.50;8.25;;;;;7.28;50.62;99180.91;7709989;22;96285;-65
2023/02/20 03:31:15;;;;;;;;;9.60;9.60;;;;;7.24;50.74;99187.66;7709140;22;96187;-66
2023/02/20 03:44:38;;;;;;;;;9.00;9.00;;;;;7.23;50.24;99186.81;7709695;22;95879;-66
2023/02/20 03:47:46;;;;;;;;;7.00;7.00;;;;;7.30;50.27;99198.44;7709957;22;97192;-66
2023/02/20 03:50:50;;;;;;;;;9.60;7.60;;;;;7.32;50.54;99188.38;7710072;22;96525;-66
2023/02/20 03:53:57;;;;;;;;;8.50;8.00;;;;;7.27;49.93;99193.47;7683185;22;96556;-66
2023/02/20 03:57:06;;;;;;;;;10.00;9.00;;;;;7.34;49.99;99190.81;7709629;22;96686;-66
2023/02/20 04:00:13;;;;;;;;;10.00;9.00;;;;;7.31;50.04;99185.88;7709638;22;96269;-66
2023/02/20 04:03:20;;;;;;;;;7.00;7.00;;;;;7.07;50.25;99167.50;7736591;22;96780;-66
2023/02/20 04:06:31;;;;;;;;;7.80;7.40;;;;;7.17;50.08;99190.28;7710074;22;96126;-67
2023/02/20 04:09:40;;;;;;;;;10.00;9.00;;;;;7.13;50.10;99189.03;7709274;22;97128;-66
2023/02/20 04:12:49;;;;;;;;;9.67;9.00;;;;;7.12;50.18;99190.03;7709788;22;96133;-66
2023/02/20 04:15:55;;;;;;;;;6.20;6.20;;;;;7.06;50.06;99195.31;7710636;22;96053;-67
2023/02/20 04:18:58;;;;;;;;;7.80;6.40;;;;;7.01;50.43;99197.75;7738337;22;96476;-68
2023/02/20 04:22:04;;;;;;;;;8.25;8.25;;;;;6.92;50.30;99197.06;7711295;22;96308;-66
2023/02/20 04:25:16;;;;;;;;;9.00;8.40;;;;;6.90;50.36;99181.16;7738028;22;97118;-65
2023/02/20 04:28:22;;;;;;;;;8.00;7.00;;;;;6.77;50.64;99178.34;7711728;22;96778;-66
2023/02/20 04:31:33;;;;;;;;;7.40;7.00;;;;;6.79;50.43;99184.31;7710699;22;96756;-66
2023/02/20 04:34:37;;;;;;;;;7.60;6.00;;;;;6.72;50.51;99185.28;7711035;22;96173;-66
2023/02/20 04:37:43;;;;;;;;;8.00;8.00;;;;;6.71;50.44;99186.31;7711279;22;98292;-66
2023/02/20 04:40:49;;;;;;;;;7.60;7.60;;;;;6.73;50.48;99184.28;7710113;22;96795;-66
2023/02/20 04:47:15;;;;;;;;;11.00;10.00;;;;;6.54;50.63;99164.28;7708375;22;97037;-67
2023/02/20 04:50:22;;;;;;;;;11.25;9.00;;;;;6.60;50.53;99150.13;7711171;22;96272;-67
2023/02/20 04:53:26;;;;;;;;;8.00;7.00;;;;;6.51;50.58;99140.53;7710996;22;96448;-66
2023/02/20 04:56:30;;;;;;;;;5.80;5.80;;;;;6.59;50.30;99143.13;7737493;22;97401;-66
2023/02/20 04:59:38;;;;;;;;;7.00;7.00;;;;;6.63;50.30;99155.13;7711396;22;96197;-66
2023/02/20 05:02:43;;;;;;;;;7.40;7.40;;;;;6.63;49.69;99159.63;7709472;22;96339;-67
2023/02/20 05:05:47;;;;;;;;;6.60;6.00;;;;;6.69;49.68;99154.34;7737035;22;96686;-67
2023/02/20 05:08:50;;;;;;;;;5.00;4.60;;;;;6.71;49.51;99156.81;7737357;22;96104;-67
2023/02/20 05:11:54;;;;;;;;;5.60;5.00;;;;;6.69;49.50;99149.00;7737408;22;96287;-66
2023/02/20 05:14:58;;;;;;;;;7.00;6.00;;;;;6.74;49.18;99148.44;7738649;22;96365;-66
2023/02/20 05:18:02;;;;;;;;;5.00;4.80;;;;;6.71;49.50;99152.31;7737476;22;96166;-67
2023/02/20 05:24:27;;;;;;;;;5.00;4.40;;;;;6.78;49.15;99144.34;7737004;22;97080;-65
2023/02/20 05:27:30;;;;;;;;;6.50;5.75;;;;;6.81;49.27;99133.22;7737540;22;96717;-66
2023/02/20 05:30:35;;;;;;;;;5.20;4.80;;;;;6.82;48.93;99124.19;7708784;22;96804;-66
2023/02/20 05:33:39;;;;;;;;;8.00;8.00;;;;;6.66;48.71;99114.53;7737248;22;96141;-66
2023/02/20 05:36:42;;;;;;;;;7.00;7.00;;;;;6.75;48.68;99126.78;7709400;22;96340;-66
2023/02/20 05:39:46;;;;;;;;;6.00;6.00;;;;;6.80;48.63;99128.88;7736196;22;97047;-66
2023/02/20 05:42:49;;;;;;;;;6.00;6.00;;;;;6.79;48.49;99135.28;7734632;22;96942;-67
2023/02/20 05:45:54;;;;;;;;;6.00;4.60;;;;;6.80;48.77;99139.59;7730019;22;96306;-66
2023/02/20 05:48:57;;;;;;;;;5.00;4.00;;;;;6.88;48.60;99134.97;7735034;22;96303;-66
2023/02/20 05:52:01;;;;;;;;;6.20;5.80;;;;;6.87;48.38;99135.97;7734650;22;96124;-66
2023/02/20 05:55:05;;;;;;;;;4.50;4.00;;;;;6.89;48.30;99139.28;7734266;22;96232;-67
2023/02/20 05:58:08;;;;;;;;;4.00;4.00;;;;;7.03;48.05;99136.75;7707135;22;97161;-66
2023/02/20 06:01:19;;;;;;;;;6.00;6.00;;;;;6.89;47.93;99109.81;7706485;22;98510;-67
2023/02/20 06:04:22;;;;;;;;;6.80;6.00;;;;;7.12;47.75;99140.94;7707347;22;96995;-67
2023/02/20 06:07:26;;;;;;;;;4.00;4.00;;;;;7.27;47.56;99142.53;7735784;22;96465;-66
2023/02/20 06:10:29;;;;;;;;;4.60;4.60;;;;;7.36;47.32;99149.41;7735410;22;96523;-66
2023/02/20 06:13:33;;;;;;;;;5.20;5.00;;;;;7.58;46.66;99147.47;7737215;22;97522;-66
2023/02/20 06:16:38;;;;;;;;;4.50;4.00;;;;;7.63;46.00;99145.03;7736996;22;96230;-66
2023/02/20 06:19:42;;;;;;;;;7.00;6.00;;;;;7.84;45.84;99154.88;7737535;22;96167;-66
2023/02/20 06:22:46;;;;;;;;;6.00;5.00;;;;;8.15;45.45;99147.19;7735913;22;96284;-66
2023/02/20 06:25:50;;;;;;;;;7.50;7.00;;;;;8.28;44.68;99141.88;7709610;22;96317;-66
2023/02/20 06:28:53;;;;;;;;;5.00;5.00;;;;;8.45;44.76;99146.94;7682456;22;96601;-67
2023/02/20 06:31:59;;;;;;;;;3.80;3.80;;;;;8.37;44.23;99147.09;7735844;22;96478;-65
2023/02/20 06:35:03;;;;;;;;;8.00;7.00;;;;;8.38;44.24;99149.59;7736913;22;96226;-66
2023/02/20 06:38:07;;;;;;;;;6.00;5.00;;;;;8.37;44.28;99141.72;7736963;22;96096;-66
2023/02/20 06:41:10;;;;;;;;;6.00;6.00;;;;;8.47;44.28;99147.53;7737118;22;96391;-65
2023/02/20 06:44:13;;;;;;;;;3.80;2.60;;;;;8.36;44.44;99151.63;7737687;22;96189;-66
2023/02/20 06:47:18;;;;;;;;;5.50;5.00;;;;;8.35;44.15;99147.31;7737370;22;96248;-67
2023/02/20 06:50:21;;;;;;;;;3.60;2.60;;;;;8.31;44.33;99150.59;7737641;22;96192;-66
2023/02/20 06:53:25;;;;;;;;;6.00;6.00;;;;;8.42;44.32;99156.22;7710825;22;96507;-66
2023/02/20 06:56:30;;;;;;;;;4.00;4.00;;;;;8.49;44.16;99146.31;7738053;22;96228;-67
2023/02/20 06:59:38;;;;;;;;;6.00;5.00;;;;;8.46;44.04;99135.97;7737087;22;96878;-66
2023/02/20 07:02:43;;;;;;;;;5.00;4.60;;;;;8.46;43.79;99124.38;7736534;22;97291;-67
2023/02/20 07:05:47;;;;;;;;;6.00;6.00;;;;;8.50;43.71;99131.03;7710068;22;96250;-66
2023/02/20 07:08:51;;;;;;;;;5.00;5.00;;;;;8.46;43.79;99137.81;7737666;22;96702;-65
2023/02/20 07:11:55;;;;;;;;;5.00;5.00;;;;;8.34;43.77;99099.97;7737254;22;96538;-66
2023/02/20 07:14:58;;;;;;;;;5.00;5.00;;;;;8.49;43.93;99105.19;7736372;22;96693;-66
2023/02/20 07:18:03;;;;;;;;;6.00;5.00;;;;;8.65;43.59;99119.06;7737444;22;96153;-66
2023/02/20 07:21:07;;;;;;;;;6.60;6.00;;;;;8.54;43.87;99091.97;7736322;22;96896;-66
2023/02/20 07:24:10;;;;;;;;;8.00;8.00;;;;;8.54;43.98;99090.13;7708813;22;98351;-66
2023/02/20 07:27:13;;;;;;;;;8.60;7.60;;;;;8.62;43.49;99092.59;7708276;22;96538;-67
2023/02/20 07:30:17;;;;;;;;;9.40;9.40;;;;;8.73;42.70;99077.75;7736420;22;96473;-66
2023/02/20 07:33:22;;;;;;;;;10.00;9.00;;;;;8.80;42.83;99086.63;7736903;22;96142;-66
2023/02/20 07:36:25;;;;;;;;;10.00;9.00;;;;;8.85;42.29;99081.47;7710671;22;96583;-67
2023/02/20 07:39:29;;;;;;;;;7.75;6.25;;;;;9.07;42.27;99085.63;7737248;22;96353;-65
2023/02/20 07:42:32;;;;;;;;;9.00;8.25;;;;;9.48;41.40;99090.72;7736763;22;96785;-66
2023/02/20 07:45:45;;;;;;;;;9.00;9.00;;;;;9.81;40.52;99076.38;7737432;22;97129;-66
2023/02/20 07:48:52;;;;;;;;;10.00;8.40;;;;;10.54;39.44;99075.03;7709499;22;96229;-65
2023/02/20 07:51:55;;;;;;;;;7.00;7.00;;;;;11.19;38.60;99086.41;7709117;22;96930;-66
2023/02/20 07:54:58;;;;;;;;;8.00;8.00;;;;;11.25;37.80;99070.13;7709887;22;96439;-65
2023/02/20 07:58:02;;;;;;;;;8.40;7.40;;;;;11.18;37.00;99058.59;7736243;22;96310;-65
2023/02/20 08:01:05;;;;;;;;;10.00;9.00;;;;;11.26;37.20;99055.59;7735898;22;96212;-65
2023/02/20 08:04:10;;;;;;;;;11.00;11.00;;;;;11.04;37.48;99040.84;7736665;22;96217;-66
2023/02/20 08:07:13;;;;;;;;;11.00;11.00;;;;;11.39;37.70;99035.72;7708483;22;96267;-66
2023/02/20 08:10:19;;;;;;;;;7.60;6.60;;;;;12.33;36.46;99043.38;7735363;22;96376;-66
2023/02/20 08:13:23;;;;;;;;;10.00;8.00;;;;;12.68;35.66;99048.91;7708934;22;96755;-66
2023/02/20 08:16:26;;;;;;;;;8.80;7.80;;;;;12.45;35.96;99049.66;7736904;22;96431;-66
2023/02/20 08:19:31;;;;;;;;;10.00;10.00;;;;;11.94;36.43;99042.00;7735095;22;96248;-66
2023/02/20 08:22:35;;;;;;;;;6.00;6.00;;;;;11.56;36.89;99044.06;7734107;22;96864;-66
2023/02/20 08:25:43;;;;;;;;;8.00;7.00;;;;;11.36;37.71;99040.75;7734334;22;96370;-65
2023/02/20 08:28:47;;;;;;;;;8.00;7.40;;;;;11.21;38.34;99035.72;7735606;22;96047;-66
2023/02/20 08:31:50;;;;;;;;;6.60;5.80;;;;;11.09;38.88;99041.00;7708358;22;96603;-66
2023/02/20 08:34:55;;;;;;;;;6.00;6.00;;;;;11.11;39.13;99038.09;7736328;22;96233;-66
2023/02/20 08:37:58;;;;;;;;;9.00;8.00;;;;;10.91;39.19;99024.75;7683138;22;96620;-65
2023/02/20 08:41:07;;;;;;;;;9.00;8.00;;;;;11.16;39.79;99022.06;7736355;22;96169;-65
2023/02/20 08:44:11;;;;;;;;;9.00;8.00;;;;;11.04;39.78;99021.16;7736961;22;96233;-66
2023/02/20 08:47:14;;;;;;;;;6.60;6.00;;;;;10.97;40.27;99015.78;7736381;22;96195;-67
2023/02/20 08:50:19;;;;;;;;;5.00;5.00;;;;;10.96;40.90;98989.03;7736101;22;96272;-66
2023/02/20 08:53:22;;;;;;;;;7.00;6.00;;;;;10.72;41.56;98985.31;7735851;22;96321;-65
2023/02/20 08:56:26;;;;;;;;;4.50;4.50;;;;;10.97;41.86;98999.63;7736364;22;96215;-66
2023/02/20 08:59:31;;;;;;;;;6.20;6.00;;;;;11.63;40.66;99002.44;7709060;22;97114;-66
2023/02/20 09:02:35;;;;;;;;;5.75;5.00;;;;;12.63;39.41;98999.25;7736161;22;96272;-66
2023/02/20 09:05:40;;;;;;;;;5.60;5.60;;;;;13.03;38.44;98982.13;7738353;22;96832;-65
2023/02/20 09:08:43;;;;;;;;;7.50;6.50;;;;;13.78;38.26;98981.38;7738473;22;96735;-66
2023/02/20 09:11:47;;;;;;;;;4.60;4.00;;;;;13.86;37.30;98980.97;7711179;22;96360;-66
2023/02/20 09:14:50;;;;;;;;;6.20;5.80;;;;;14.19;36.47;98975.66;7738187;22;96436;-66
2023/02/20 09:17:54;;;;;;;;;3.80;3.40;;;;;14.34;36.05;98975.13;7738645;22;96205;-65
2023/02/20 09:20:59;;;;;;;;;5.60;5.60;;;;;14.01;36.43;98967.72;7737929;22;96272;-66
2023/02/20 09:24:05;;;;;;;;;6.00;6.00;;;;;13.47;36.73;98955.50;7738093;22;96349;-65
2023/02/20 09:27:08;;;;;;;;;6.00;5.00;;;;;13.25;37.95;98963.41;7684502;22;97194;-66
2023/02/20 09:30:18;;;;;;;;;5.60;4.40;;;;;13.22;37.87;98949.53;7738104;22;97038;-66
2023/02/20 09:33:22;;;;;;;;;7.00;6.00;;;;;13.38;38.01;98946.94;7737510;22;96876;-66
2023/02/20 09:36:27;;;;;;;;;5.00;5.00;;;;;13.35;37.75;98933.88;7710634;22;96767;-66
2023/02/20 09:39:31;;;;;;;;;5.00;5.00;;;;;13.52;37.90;98938.53;7710683;22;96967;-66
2023/02/20 09:42:47;;;;;;;;;7.00;6.00;;;;;13.20;38.28;98933.53;7737571;22;96181;-66
2023/02/20 09:45:56;;;;;;;;;5.00;5.00;;;;;12.80;39.05;98932.59;7738163;22;96422;-65
2023/02/20 09:49:07;;;;;;;;;5.00;4.75;;;;;12.43;39.84;98913.03;7738142;22;96414;-67
2023/02/20 09:52:15;;;;;;;;;5.20;5.00;;;;;12.41;40.03;98896.22;7738086;22;96628;-65
2023/02/20 09:55:22;;;;;;;;;4.40;4.00;;;;;12.24;40.83;98889.84;7737668;22;96590;-66
2023/02/20 09:58:34;;;;;;;;;4.00;4.00;;;;;12.20;41.26;98900.31;7710283;22;96591;-67
2023/02/20 10:01:43;;;;;;;;;6.00;6.00;;;;;12.03;41.46;98883.09;7736610;22;96420;-65
2023/02/20 10:04:49;;;;;;;;;5.00;4.00;;;;;12.19;41.87;98904.06;7736559;22;96291;-65
2023/02/20 10:08:09;;;;;;;;;7.00;6.00;;;;;12.17;42.35;98899.94;7709781;22;96881;-66
2023/02/20 10:11:20;;;;;;;;;6.67;5.67;;;;;12.37;41.89;98889.63;7736899;22;96973;-66
2023/02/20 10:14:37;;;;;;;;;6.00;6.00;;;;;12.42;41.82;98898.69;7737829;22;96219;-65
2023/02/20 10:17:50;;;;;;;;;5.75;5.00;;;;;12.41;41.78;98880.00;7737657;22;96378;-66
2023/02/20 10:21:00;;;;;;;;;6.00;5.00;;;;;12.26;42.09;98874.22;7737649;22;96366;-66
2023/02/20 10:24:21;;;;;;;;;5.00;4.00;;;;;12.28;42.12;98864.81;7710452;22;96371;-65
2023/02/20 10:27:35;;;;;;;;;5.00;5.00;;;;;12.27;42.16;98860.44;7737822;22;96774;-66
2023/02/20 10:30:44;;;;;;;;;6.50;6.50;;;;;12.15;42.61;98849.66;7737761;22;96413;-65
2023/02/20 10:33:51;;;;;;;;;6.60;6.00;;;;;11.96;43.01;98845.38;7737714;22;96984;-66
2023/02/20 10:37:00;;;;;;;;;8.00;7.00;;;;;11.93;43.19;98840.41;7709970;22;96758;-67
2023/02/20 10:40:14;;;;;;;;;7.20;6.00;;;;;11.91;43.63;98826.34;7737749;22;96992;-65
2023/02/20 10:43:23;;;;;;;;;7.00;7.00;;;;;12.13;43.62;98818.50;7737628;22;96744;-66
2023/02/20 10:46:32;;;;;;;;;9.00;7.40;;;;;12.08;43.51;98819.19;7737905;22;96775;-67
2023/02/20 10:49:58;;;;;;;;;5.75;5.00;;;;;12.06;43.11;98807.81;7738207;22;96431;-66
2023/02/20 10:53:09;;;;;;;;;9.00;8.00;;;;;12.15;43.34;98801.00;7737647;22;96117;-65
2023/02/20 10:56:21;;;;;;;;;10.00;9.00;;;;;12.14;43.67;98790.41;7709982;22;96648;-66
2023/02/20 10:59:32;;;;;;;;;7.00;7.00;;;;;12.30;43.62;98776.22;7710350;22;96432;-66
2023/02/20 11:02:40;;;;;;;;;8.00;7.00;;;;;12.18;43.48;98766.44;7737264;22;96352;-65
2023/02/20 11:05:48;;;;;;;;;9.00;7.60;;;;;12.28;42.91;98763.97;7737648;22;98003;-65
2023/02/20 11:08:52;;;;;;;;;11.00;9.75;;;;;12.36;42.57;98764.47;7737605;22;96381;-65
2023/02/20 11:11:56;;;;;;;;;8.75;8.25;;;;;12.39;42.53;98755.03;7737671;22;96800;-65
2023/02/20 11:15:05;;;;;;;;;9.00;7.00;;;;;12.46;42.45;98744.94;7737421;22;96492;-66
2023/02/20 11:18:24;;;;;;;;;9.00;9.00;;;;;12.63;42.30;98742.31;7737422;22;96266;-66
2023/02/20 11:21:37;;;;;;;;;7.00;7.00;;;;;12.63;42.55;98743.13;7737392;22;96292;-65
2023/02/20 11:24:42;;;;;;;;;7.00;7.00;;;;;12.23;43.73;98728.72;7737240;22;96468;-66
2023/02/20 11:27:49;;;;;;;;;8.00;8.00;;;;;12.24;44.26;98717.69;7737116;22;96546;-65
2023/02/20 11:31:01;;;;;;;;;8.75;8.75;;;;;12.22;44.54;98716.28;7737408;22;96228;-65
2023/02/20 11:34:06;;;;;;;;;7.60;7.60;;;;;12.24;44.36;98696.06;7683090;22;99699;-65
2023/02/20 11:37:13;;;;;;;;;9.60;8.00;;;;;12.33;44.37;98691.09;7736794;22;96940;-67
2023/02/20 11:40:21;;;;;;;;;8.25;7.25;;;;;12.65;44.29;98700.47;7736876;22;96462;-68
2023/02/20 11:43:28;;;;;;;;;9.00;9.00;;;;;12.66;44.14;98687.75;7736917;22;96216;-66
2023/02/20 11:46:32;;;;;;;;;7.80;7.00;;;;;12.77;44.05;98686.88;7737200;22;96413;-66
2023/02/20 11:49:35;;;;;;;;;7.00;7.00;;;;;12.61;44.44;98693.06;7710021;22;96199;-65
2023/02/20 11:52:54;;;;;;;;;8.00;7.00;;;;;12.55;44.51;98689.44;7737177;22;96376;-65
2023/02/20 11:56:10;;;;;;;;;8.00;8.00;;;;;12.65;44.58;98681.53;7709759;22;96207;-66
2023/02/20 11:59:27;;;;;;;;;9.00;9.00;;;;;12.64;44.67;98663.66;7708876;22;96521;-66
2023/02/20 12:02:31;;;;;;;;;8.60;8.40;;;;;12.67;44.57;98657.75;7735588;22;97271;-67
2023/02/20 12:05:39;;;;;;;;;8.00;8.00;;;;;12.53;45.07;98634.75;7708367;22;96752;-63
2023/02/20 12:08:56;;;;;;;;;7.20;6.60;;;;;12.60;45.04;98632.75;7735009;22;96268;-65
2023/02/20 12:11:59;;;;;;;;;7.00;7.00;;;;;12.72;45.15;98629.97;7734780;22;96473;-65
2023/02/20 12:15:12;;;;;;;;;7.00;7.00;;;;;12.87;45.21;98614.84;7736227;22;96681;-66
2023/02/20 12:18:40;;;;;;;;;5.60;5.60;;;;;12.92;44.79;98589.78;7736962;22;96190;-66
2023/02/20 12:21:58;;;;;;;;;7.00;5.40;;;;;13.18;44.28;98577.53;7736928;22;97420;-65
2023/02/20 12:25:20;;;;;;;;;6.00;6.00;;;;;13.47;43.99;98575.53;7709071;22;97192;-66
2023/02/20 12:28:34;;;;;;;;;6.60;6.00;;;;;13.60;43.73;98577.91;7737038;22;97130;-66
2023/02/20 12:31:54;;;;;;;;;7.00;7.00;;;;;13.63;43.58;98569.28;7736465;22;96412;-66
2023/02/20 12:35:10;;;;;;;;;9.20;9.00;;;;;13.54;43.58;98576.19;7709554;22;96990;-66
2023/02/20 12:38:30;;;;;;;;;10.00;10.00;;;;;13.10;43.97;98565.19;7737407;22;96331;-69
2023/02/20 12:41:48;;;;;;;;;8.00;6.00;;;;;12.88;44.40;98539.91;7709809;22;96887;-66
2023/02/20 12:45:16;;;;;;;;;8.60;8.60;;;;;13.07;44.28;98564.84;7738174;22;96295;-66
2023/02/20 12:48:33;;;;;;;;;9.00;9.00;;;;;13.00;44.48;98551.47;7738375;22;96747;-66
2023/02/20 12:51:42;;;;;;;;;7.40;7.00;;;;;12.93;44.64;98561.66;7736606;22;96334;-66
2023/02/20 12:54:51;;;;;;;;;11.00;10.00;;;;;12.83;44.78;98553.38;7707963;22;96225;-67
2023/02/20 12:58:16;;;;;;;;;10.00;10.00;;;;;12.84;44.76;98520.66;7705974;22;96908;-67
2023/02/20 13:01:23;;;;;;;;;8.00;8.00;;;;;12.98;44.42;98511.16;7734267;22;96995;-67
2023/02/20 13:04:46;;;;;;;;;9.00;9.00;;;;;13.05;44.59;98504.75;7734147;22;96919;-66
2023/02/20 13:07:52;;;;;;;;;8.00;8.00;;;;;13.10;44.19;98473.16;7709260;22;96601;-65
2023/02/20 13:10:57;;;;;;;;;9.00;9.00;;;;;13.35;44.24;98478.16;7683445;22;96789;-66
2023/02/20 13:14:09;;;;;;;;;14.00;13.40;;;;;13.41;44.28;98474.47;7708971;22;96308;-67
2023/02/20 13:17:26;;;;;;;;;9.20;9.00;;;;;13.39;43.85;98465.75;7736234;22;96557;-66
2023/02/20 13:20:37;;;;;;;;;11.00;11.00;;;;;13.41;43.76;98485.28;7736085;22;96234;-67
2023/02/20 13:23:46;;;;;;;;;11.00;10.60;;;;;13.46;43.90;98477.25;7708166;22;98371;-66
2023/02/20 13:26:52;;;;;;;;;11.00;11.00;;;;;13.37;43.97;98473.31;7735794;22;96259;-67
2023/02/20 13:30:00;;;;;;;;;8.60;8.00;;;;;13.28;43.92;98483.75;7735838;22;97313;-66
2023/02/20 13:33:24;;;;;;;;;8.00;8.00;;;;;13.19;43.95;98446.53;7737317;22;96500;-66
2023/02/20 13:36:43;;;;;;;;;8.40;7.00;;;;;13.44;43.75;98455.00;7710038;22;96985;-67
2023/02/20 13:39:46;;;;;;;;;9.00;8.00;;;;;13.55;43.89;98443.22;7737919;22;96341;-67
2023/02/20 13:43:19;;;;;;;;;9.60;9.60;;;;;13.37;43.70;98441.66;7736853;22;96323;-66
2023/02/20 13:46:25;;;;;;;;;9.00;9.00;;;;;13.55;43.37;98426.16;7737779;22;96290;-67
2023/02/20 13:49:58;;;;;;;;;7.60;7.00;;;;;13.55;43.33;98428.88;7737321;22;96410;-67
2023/02/20 13:53:06;;;;;;;;;10.20;9.00;;;;;13.36;43.28;98420.25;7710199;22;96215;-64
2023/02/20 13:56:15;;;;;;;;;10.00;10.00;;;;;13.57;43.14;98405.91;7737238;22;96190;-65
2023/02/20 13:59:20;;;;;;;;;9.00;8.00;;;;;13.35;43.27;98380.69;7736948;22;96390;-65
2023/02/20 14:02:29;;;;;;;;;10.00;9.00;;;;;13.28;43.26;98361.94;7737120;22;96207;-64
2023/02/20 14:05:32;;;;;;;;;13.00;11.00;;;;;13.45;42.91;98356.44;7735927;22;96459;-64
2023/02/20 14:08:40;;;;;;;;;7.00;7.00;;;;;13.56;42.77;98341.97;7709977;22;98375;-64
2023/02/20 14:11:44;;;;;;;;;9.40;9.00;;;;;13.53;43.01;98326.22;7710576;22;96264;-64
2023/02/20 14:14:47;;;;;;;;;9.00;8.00;;;;;13.31;43.40;98333.53;7737340;22;96309;-64
2023/02/20 14:17:52;;;;;;;;;8.00;8.00;;;;;13.18;43.68;98304.97;7710550;22;96253;-64
2023/02/20 14:21:04;;;;;;;;;8.80;8.00;;;;;13.02;44.26;98311.22;7737450;22;96752;-64
2023/02/20 14:24:18;;;;;;;;;10.50;10.50;;;;;12.91;44.20;98280.50;7708765;22;98853;-64
2023/02/20 14:27:26;;;;;;;;;9.00;9.00;;;;;12.75;43.94;98262.47;7736864;22;96390;-64
2023/02/20 14:30:30;;;;;;;;;11.60;11.20;;;;;12.80;44.52;98275.25;7737262;22;96304;-63
2023/02/20 14:33:34;;;;;;;;;13.00;12.00;;;;;12.74;45.01;98276.25;7709301;22;98298;-65
2023/02/20 14:36:50;;;;;;;;;13.20;11.80;;;;;12.70;45.23;98270.53;7736791;22;96239;-64
2023/02/20 14:40:03;;;;;;;;;11.00;10.00;;;;;12.59;45.15;98274.97;7737042;22;96441;-64
2023/02/20 14:43:16;;;;;;;;;12.60;12.00;;;;;12.37;45.76;98289.50;7737106;22;96230;-65
2023/02/20 14:46:23;;;;;;;;;11.00;11.00;;;;;12.37;45.81;98287.59;7709453;22;97021;-65
2023/02/20 14:49:29;;;;;;;;;9.00;8.60;;;;;12.11;46.06;98250.47;7737000;22;96293;-64
2023/02/20 14:52:33;;;;;;;;;10.00;9.00;;;;;12.09;46.02;98231.78;7737118;22;96343;-65
2023/02/20 14:55:38;;;;;;;;;11.00;11.00;;;;;12.32;45.91;98227.25;7736441;22;96639;-64
2023/02/20 14:58:41;;;;;;;;;11.60;11.00;;;;;12.21;46.24;98241.69;7709758;22;96390;-65
2023/02/20 15:01:45;;;;;;;;;10.00;9.00;;;;;12.07;46.47;98204.19;7736547;22;97050;-64